createdAt,value
2018-07-06T00:01:20.414Z,22.60
2018-07-06T00:04:00.518Z,22.60
2018-07-06T00:06:40.856Z,22.70
2018-07-06T00:09:21.091Z,22.70
2018-07-06T00:12:01.396Z,22.70
2018-07-06T00:14:41.638Z,22.70
2018-07-06T00:17:21.850Z,22.70
2018-07-06T00:20:02.041Z,22.70
2018-07-06T00:22:42.360Z,22.70
2018-07-06T00:25:22.608Z,22.70
2018-07-06T00:30:36.960Z,22.60
2018-07-06T00:33:17.200Z,22.60
2018-07-06T00:35:57.271Z,22.50
2018-07-06T00:38:37.542Z,22.30
2018-07-06T00:41:17.734Z,22.20
2018-07-06T00:43:57.944Z,22.20
2018-07-06T00:46:38.090Z,22.10
2018-07-06T00:49:18.191Z,22.10
2018-07-06T00:51:58.404Z,22.10
2018-07-06T00:54:38.645Z,22.10
2018-07-06T00:57:19.196Z,22.10
2018-07-06T00:59:59.314Z,22.00
2018-07-06T01:02:39.467Z,21.90
2018-07-06T01:05:19.571Z,21.90
2018-07-06T01:07:59.656Z,21.90
2018-07-06T01:10:39.772Z,21.90
2018-07-06T01:13:19.929Z,21.90
2018-07-06T01:16:00.165Z,21.90
2018-07-06T01:18:40.473Z,21.80
2018-07-06T01:21:20.535Z,21.80
2018-07-06T01:24:00.582Z,21.80
2018-07-06T01:26:40.756Z,21.90
2018-07-06T01:29:20.901Z,21.80
2018-07-06T01:32:01.049Z,21.70
2018-07-06T01:34:41.411Z,21.70
2018-07-06T01:37:21.615Z,21.70
2018-07-06T01:40:01.690Z,21.80
2018-07-06T01:42:41.707Z,21.70
2018-07-06T01:45:21.959Z,21.70
2018-07-06T01:48:02.195Z,21.70
2018-07-06T01:53:16.450Z,21.60
2018-07-06T01:55:56.756Z,21.50
2018-07-06T01:58:37.005Z,21.50
2018-07-06T02:01:17.179Z,21.50
2018-07-06T02:03:57.525Z,21.50
2018-07-06T02:06:37.612Z,21.50
2018-07-06T02:09:17.786Z,21.40
2018-07-06T02:11:57.745Z,21.30
2018-07-06T02:14:38.019Z,21.20
2018-07-06T02:17:18.231Z,21.20
2018-07-06T02:19:58.476Z,21.20
2018-07-06T02:22:38.624Z,21.20
2018-07-06T02:25:18.760Z,21.20
2018-07-06T02:27:59.021Z,21.20
2018-07-06T02:30:39.196Z,21.20
2018-07-06T02:33:19.456Z,21.20
2018-07-06T02:35:59.583Z,21.20
2018-07-06T02:38:39.692Z,21.10
2018-07-06T02:41:19.972Z,21.10
2018-07-06T02:44:00.237Z,21.10
2018-07-06T02:46:40.379Z,21.10
2018-07-06T02:49:20.618Z,21.00
2018-07-06T02:52:00.773Z,20.90
2018-07-06T02:54:41.076Z,20.90
2018-07-06T02:57:21.167Z,20.90
2018-07-06T03:00:01.471Z,20.90
2018-07-06T03:02:41.648Z,20.80
2018-07-06T03:05:21.732Z,20.70
2018-07-06T03:08:01.949Z,20.70
2018-07-06T03:10:42.183Z,20.60
2018-07-06T03:13:22.443Z,20.50
2018-07-06T03:16:02.604Z,20.40
2018-07-06T03:18:42.650Z,20.40
2018-07-06T03:23:57.127Z,20.40
2018-07-06T03:26:37.282Z,20.40
2018-07-06T03:29:17.833Z,20.50
2018-07-06T03:31:58.220Z,20.40
2018-07-06T03:34:38.358Z,20.40
2018-07-06T03:37:18.669Z,20.30
2018-07-06T03:39:58.780Z,20.30
2018-07-06T03:42:39.044Z,20.30
2018-07-06T03:45:19.247Z,20.30
2018-07-06T03:47:59.552Z,20.40
2018-07-06T03:50:39.820Z,20.40
2018-07-06T03:53:19.973Z,20.20
2018-07-06T03:56:00.154Z,20.10
2018-07-06T03:58:40.412Z,20.10
2018-07-06T04:01:20.620Z,20.00
2018-07-06T04:04:00.861Z,20.00
2018-07-06T04:06:40.822Z,20.10
2018-07-06T04:09:21.309Z,20.10
2018-07-06T04:12:01.367Z,20.10
2018-07-06T04:14:41.608Z,20.10
2018-07-06T04:17:22.054Z,20.00
2018-07-06T04:20:02.366Z,20.00
2018-07-06T04:22:42.694Z,20.00
2018-07-06T04:25:22.951Z,19.90
2018-07-06T04:28:03.167Z,19.90
2018-07-06T04:30:43.376Z,19.90
2018-07-06T04:33:23.625Z,19.90
2018-07-06T04:36:03.791Z,19.90
2018-07-06T04:38:44.026Z,19.90
2018-07-06T04:41:24.259Z,19.90
2018-07-06T04:44:04.500Z,19.90
2018-07-06T04:46:44.566Z,19.80
2018-07-06T04:49:24.648Z,19.70
2018-07-06T04:52:05.279Z,19.60
2018-07-06T04:54:45.424Z,19.70
2018-07-06T04:57:25.639Z,19.80
2018-07-06T05:00:05.887Z,19.80
2018-07-06T05:02:46.175Z,19.70
2018-07-06T05:05:26.272Z,19.70
2018-07-06T05:08:06.536Z,19.80
2018-07-06T05:10:46.637Z,19.80
2018-07-06T05:13:26.888Z,19.90
2018-07-06T05:16:07.059Z,20.00
2018-07-06T05:18:47.299Z,20.00
2018-07-06T05:21:27.646Z,20.00
2018-07-06T05:24:07.727Z,20.10
2018-07-06T05:26:47.965Z,20.10
2018-07-06T05:29:28.035Z,20.20
2018-07-06T05:32:08.253Z,20.20
2018-07-06T05:34:48.377Z,20.20
2018-07-06T05:37:28.612Z,20.20
2018-07-06T05:40:08.904Z,20.20
2018-07-06T05:42:49.143Z,20.30
2018-07-06T05:45:29.226Z,20.30
2018-07-06T05:48:09.411Z,20.40
2018-07-06T05:50:49.595Z,20.40
2018-07-06T05:53:29.706Z,20.40
2018-07-06T05:56:09.932Z,20.50
2018-07-06T05:58:50.182Z,20.50
2018-07-06T06:01:30.361Z,20.50
2018-07-06T06:04:10.464Z,20.60
2018-07-06T06:06:50.688Z,20.70
2018-07-06T06:09:19.960Z,20.70
2018-07-06T06:11:49.224Z,20.80
2018-07-06T06:14:18.505Z,20.80
2018-07-06T06:16:47.835Z,20.90
2018-07-06T06:19:17.083Z,21.00
2018-07-06T06:21:46.616Z,21.10
2018-07-06T06:24:15.933Z,21.20
2018-07-06T06:26:45.183Z,21.30
2018-07-06T06:29:14.482Z,21.50
2018-07-06T06:31:43.970Z,21.70
2018-07-06T06:34:13.339Z,21.80
2018-07-06T06:36:42.675Z,22.00
2018-07-06T06:39:12.077Z,22.20
2018-07-06T06:41:41.597Z,22.40
2018-07-06T06:44:10.982Z,22.50
2018-07-06T06:46:42.460Z,22.80
2018-07-06T06:49:11.775Z,23.00
2018-07-06T06:51:41.211Z,23.20
2018-07-06T06:54:10.489Z,23.30
2018-07-06T06:56:39.931Z,23.60
2018-07-06T06:59:09.289Z,24.00
2018-07-06T07:01:38.611Z,24.20
2018-07-06T07:04:07.904Z,24.20
2018-07-06T07:06:37.971Z,24.30
2018-07-06T07:09:07.463Z,24.50
2018-07-06T07:11:37.100Z,24.60
2018-07-06T07:14:06.629Z,25.10
2018-07-06T07:16:35.903Z,25.40
2018-07-06T07:19:05.216Z,25.70
2018-07-06T07:21:34.659Z,26.00
2018-07-06T07:24:04.029Z,25.90
2018-07-06T07:26:33.459Z,26.20
2018-07-06T07:29:02.754Z,26.40
2018-07-06T07:31:32.159Z,26.30
2018-07-06T07:34:01.498Z,26.60
2018-07-06T07:36:34.754Z,26.80
2018-07-06T07:39:05.077Z,27.10
2018-07-06T07:41:34.534Z,27.50
2018-07-06T07:44:03.767Z,27.60
2018-07-06T07:46:33.098Z,27.60
2018-07-06T07:49:02.404Z,27.60
2018-07-06T07:54:41.971Z,27.90
2018-07-06T07:57:11.358Z,27.50
2018-07-06T07:59:41.250Z,27.40
2018-07-06T08:02:10.514Z,27.70
2018-07-06T08:04:39.746Z,27.80
2018-07-06T08:07:08.811Z,27.90
2018-07-06T08:09:38.310Z,27.90
2018-07-06T08:12:07.406Z,28.60
2018-07-06T08:14:36.782Z,28.90
2018-07-06T08:19:34.697Z,29.10
2018-07-06T08:22:03.754Z,29.30
2018-07-06T08:24:32.818Z,29.50
2018-07-06T08:27:01.851Z,29.60
2018-07-06T08:29:30.918Z,29.90
2018-07-06T08:32:00.016Z,29.90
2018-07-06T08:34:40.095Z,30.00
2018-07-06T08:37:31.081Z,29.60
2018-07-06T08:40:00.578Z,29.80
2018-07-06T08:42:31.689Z,30.40
2018-07-06T08:45:01.374Z,30.50
2018-07-06T08:47:30.481Z,30.70
2018-07-06T08:50:00.293Z,31.10
2018-07-06T08:52:29.478Z,31.20
2018-07-06T08:54:58.521Z,31.10
2018-07-06T08:57:28.726Z,31.70
2018-07-06T08:59:57.803Z,31.30
2018-07-06T09:02:27.295Z,31.50
2018-07-06T09:04:57.148Z,31.00
2018-07-06T09:07:26.318Z,31.40
2018-07-06T09:09:56.146Z,31.40
2018-07-06T09:12:25.203Z,31.70
2018-07-06T09:14:54.337Z,31.70
2018-07-06T09:17:23.747Z,32.00
2018-07-06T09:19:53.955Z,31.70
2018-07-06T09:22:22.683Z,32.20
2018-07-06T09:24:53.078Z,33.10
2018-07-06T09:27:22.200Z,33.10
2018-07-06T09:29:51.270Z,33.20
2018-07-06T09:32:20.322Z,32.90
2018-07-06T09:34:49.540Z,32.40
2018-07-06T09:37:18.630Z,32.80
2018-07-06T09:39:48.599Z,32.50
2018-07-06T09:42:18.206Z,32.80
2018-07-06T09:44:47.310Z,32.10
2018-07-06T09:47:16.551Z,32.20
2018-07-06T09:49:45.643Z,32.10
2018-07-06T09:52:14.766Z,32.00
2018-07-06T09:54:43.804Z,32.20
2018-07-06T09:57:12.945Z,32.80
2018-07-06T09:59:42.011Z,32.60
2018-07-06T10:02:11.059Z,32.70
2018-07-06T10:04:40.139Z,33.00
2018-07-06T10:07:09.182Z,33.40
2018-07-06T10:09:38.550Z,32.70
2018-07-06T10:12:07.658Z,32.70
2018-07-06T10:14:36.898Z,32.80
2018-07-06T10:17:06.214Z,31.90
2018-07-06T10:19:35.963Z,32.80
2018-07-06T10:22:06.035Z,33.40
2018-07-06T10:24:35.266Z,33.60
2018-07-06T10:27:04.636Z,34.20
2018-07-06T10:29:46.572Z,33.80
2018-07-06T10:32:22.016Z,33.30
2018-07-06T10:34:51.338Z,33.10
2018-07-06T10:37:20.973Z,33.30
2018-07-06T10:39:50.990Z,33.70
2018-07-06T10:42:20.243Z,34.00
2018-07-06T10:44:49.642Z,34.10
2018-07-06T10:47:19.057Z,33.80
2018-07-06T10:49:48.480Z,33.80
2018-07-06T10:52:18.379Z,33.90
2018-07-06T10:54:48.328Z,33.60
2018-07-06T10:57:17.667Z,34.30
2018-07-06T10:59:47.051Z,34.20
2018-07-06T11:02:16.442Z,33.90
2018-07-06T11:04:45.784Z,34.00
2018-07-06T11:07:15.168Z,34.00
2018-07-06T11:09:44.574Z,34.70
2018-07-06T11:12:13.956Z,35.60
2018-07-06T11:14:43.311Z,35.40
2018-07-06T11:17:12.555Z,35.00
2018-07-06T11:19:41.932Z,35.00
2018-07-06T11:22:11.250Z,34.30
2018-07-06T11:24:40.571Z,33.70
2018-07-06T11:27:09.922Z,34.10
2018-07-06T11:29:39.258Z,34.60
2018-07-06T11:32:08.613Z,35.00
2018-07-06T11:34:38.008Z,34.20
2018-07-06T11:37:07.371Z,34.80
2018-07-06T11:39:36.784Z,34.40
2018-07-06T11:42:06.180Z,34.20
2018-07-06T11:44:35.462Z,33.60
2018-07-06T11:47:04.890Z,33.60
2018-07-06T11:49:40.564Z,33.90
2018-07-06T11:52:09.915Z,33.70
2018-07-06T11:54:39.259Z,34.00
2018-07-06T11:57:08.613Z,33.40
2018-07-06T11:59:37.896Z,33.90
2018-07-06T12:02:07.251Z,33.40
2018-07-06T12:04:36.742Z,33.90
2018-07-06T12:07:06.035Z,33.90
2018-07-06T12:09:35.405Z,34.40
2018-07-06T12:12:04.742Z,35.00
2018-07-06T12:14:34.075Z,34.30
2018-07-06T12:17:03.376Z,33.90
2018-07-06T12:19:32.685Z,34.30
2018-07-06T12:22:02.061Z,34.10
2018-07-06T12:24:31.387Z,34.10
2018-07-06T12:27:00.746Z,34.60
2018-07-06T12:29:30.176Z,34.10
2018-07-06T12:31:59.543Z,33.80
2018-07-06T12:34:28.875Z,33.30
2018-07-06T12:36:58.352Z,32.60
2018-07-06T12:39:27.660Z,32.90
2018-07-06T12:41:57.078Z,33.40
2018-07-06T12:44:26.477Z,35.00
2018-07-06T12:46:55.877Z,35.00
2018-07-06T12:49:25.249Z,34.90
2018-07-06T12:51:54.548Z,35.20
2018-07-06T12:54:23.889Z,35.60
2018-07-06T12:56:53.233Z,35.30
2018-07-06T12:59:22.559Z,35.60
2018-07-06T13:01:51.881Z,35.40
2018-07-06T13:04:21.227Z,35.10
2018-07-06T13:06:50.506Z,35.30
2018-07-06T13:09:19.820Z,36.20
2018-07-06T13:11:49.228Z,37.30
2018-07-06T13:14:18.547Z,37.90
2018-07-06T13:16:47.884Z,38.00
2018-07-06T13:19:17.191Z,37.90
2018-07-06T13:21:47.296Z,36.90
2018-07-06T13:24:16.680Z,36.10
2018-07-06T13:26:46.048Z,36.40
2018-07-06T13:29:15.380Z,37.00
2018-07-06T13:31:44.671Z,36.80
2018-07-06T13:36:42.774Z,36.90
2018-07-06T13:39:12.248Z,36.60
2018-07-06T13:41:41.549Z,36.20
2018-07-06T13:44:10.804Z,35.90
2018-07-06T13:46:40.155Z,36.50
2018-07-06T13:49:09.503Z,37.40
2018-07-06T13:51:38.871Z,36.90
2018-07-06T13:54:08.285Z,37.50
2018-07-06T13:56:37.647Z,37.60
2018-07-06T13:59:07.151Z,37.00
2018-07-06T14:01:36.471Z,37.10
2018-07-06T14:04:05.909Z,36.60
2018-07-06T14:06:35.211Z,36.00
2018-07-06T14:09:04.635Z,35.50
2018-07-06T14:11:33.951Z,36.30
2018-07-06T14:14:03.425Z,37.00
2018-07-06T14:16:32.799Z,37.30
2018-07-06T14:19:02.191Z,37.10
2018-07-06T17:40:27.446Z,32.90
2018-07-06T17:42:56.827Z,32.70
2018-07-06T17:45:26.097Z,32.10
2018-07-06T17:47:55.341Z,31.50
2018-07-06T17:50:24.804Z,31.50
2018-07-06T17:52:54.074Z,31.50
2018-07-06T17:55:23.416Z,31.40
2018-07-06T17:57:52.799Z,31.20
2018-07-06T18:00:22.191Z,31.00
2018-07-06T18:02:51.726Z,31.00
2018-07-06T18:05:21.192Z,30.80
2018-07-06T18:07:50.632Z,30.20
2018-07-06T18:10:20.058Z,30.10
2018-07-06T18:12:49.373Z,30.10
2018-07-06T18:15:19.376Z,30.00
2018-07-06T18:17:49.237Z,29.80
2018-07-06T18:20:18.727Z,29.70
2018-07-06T18:22:48.913Z,29.60
2018-07-06T18:25:18.212Z,29.50
2018-07-06T18:27:47.695Z,29.40
2018-07-06T18:30:20.979Z,29.40
2018-07-06T18:35:19.168Z,29.10
2018-07-06T18:37:48.571Z,28.30
2018-07-06T18:40:17.954Z,28.20
2018-07-06T18:42:47.489Z,28.10
2018-07-06T18:45:16.788Z,28.00
2018-07-06T18:47:46.043Z,28.00
2018-07-06T18:50:15.353Z,28.00
2018-07-06T18:52:44.814Z,27.90
2018-07-06T18:55:14.182Z,27.90
2018-07-06T18:57:43.505Z,27.70
2018-07-06T19:00:12.852Z,27.60
2018-07-06T19:02:42.391Z,27.50
2018-07-06T19:05:11.861Z,27.30
2018-07-06T19:07:41.168Z,27.20
2018-07-06T19:10:10.640Z,27.00
2018-07-06T19:12:40.112Z,26.80
2018-07-06T19:15:09.581Z,26.80
2018-07-06T19:17:39.049Z,26.70
2018-07-06T19:20:08.439Z,26.70
2018-07-06T19:22:37.778Z,26.60
2018-07-06T19:25:07.080Z,26.60
2018-07-06T19:27:36.619Z,26.60
2018-07-06T19:30:18.653Z,26.50
2018-07-06T19:32:47.954Z,26.40
2018-07-06T19:35:17.422Z,26.30
2018-07-06T19:37:46.819Z,26.20
2018-07-06T19:40:19.834Z,26.10
2018-07-06T19:42:49.096Z,26.10
2018-07-06T19:45:18.591Z,26.00
2018-07-06T19:47:47.906Z,25.90
2018-07-06T19:50:17.328Z,25.80
2018-07-06T19:52:46.603Z,25.70
2018-07-06T19:55:16.211Z,25.50
2018-07-06T19:57:45.691Z,25.20
2018-07-06T20:00:15.078Z,25.00
2018-07-06T20:02:44.299Z,24.90
2018-07-06T20:05:13.677Z,24.80
2018-07-06T20:07:43.155Z,24.70
2018-07-06T20:10:12.474Z,24.60
2018-07-06T20:12:41.720Z,24.60
2018-07-06T20:15:11.164Z,24.50
2018-07-06T20:17:40.459Z,24.30
2018-07-06T20:20:10.332Z,24.10
2018-07-06T20:22:39.680Z,24.00
2018-07-06T20:25:09.031Z,23.90
2018-07-06T20:27:38.261Z,23.80
2018-07-06T20:30:07.602Z,23.70
2018-07-06T20:32:36.814Z,23.50
2018-07-06T20:35:06.186Z,23.50
2018-07-06T20:37:35.547Z,23.50
2018-07-06T20:40:04.995Z,23.40
2018-07-06T20:42:34.291Z,23.30
2018-07-06T20:45:03.614Z,23.30
2018-07-06T20:47:32.899Z,23.20
2018-07-06T20:50:02.233Z,23.10
2018-07-06T20:52:31.536Z,22.90
2018-07-06T20:55:00.727Z,22.80
2018-07-06T20:57:30.116Z,22.50
2018-07-06T20:59:59.343Z,22.30
2018-07-06T21:02:28.860Z,22.20
2018-07-06T21:04:58.189Z,22.20
2018-07-06T21:07:27.498Z,22.30
2018-07-06T21:09:56.787Z,22.20
2018-07-06T21:12:26.334Z,22.20
2018-07-06T21:14:55.910Z,22.00
2018-07-06T21:17:25.207Z,21.80
2018-07-06T21:19:54.661Z,21.90
2018-07-06T21:22:23.997Z,21.90
2018-07-06T21:24:53.702Z,21.90
2018-07-06T21:27:23.012Z,21.80
2018-07-06T21:29:52.272Z,21.80
2018-07-06T21:32:21.629Z,21.80
2018-07-06T21:34:50.858Z,21.60
2018-07-06T21:37:20.224Z,21.50
2018-07-06T21:39:49.608Z,21.30
2018-07-06T21:42:18.851Z,21.20
2018-07-06T21:44:48.531Z,21.20
2018-07-06T21:49:46.571Z,21.10
2018-07-06T21:52:15.842Z,21.10
2018-07-06T21:54:45.187Z,21.00
2018-07-06T21:57:14.571Z,21.00
2018-07-06T21:59:43.895Z,20.90
2018-07-06T22:02:16.214Z,20.80
2018-07-06T22:04:47.688Z,20.60
2018-07-06T22:07:17.435Z,20.50
2018-07-06T22:09:46.795Z,20.50
2018-07-06T22:12:16.075Z,20.50
2018-07-06T22:14:45.379Z,20.50
2018-07-06T22:17:14.751Z,20.40
2018-07-06T22:19:44.073Z,20.40
2018-07-06T22:22:13.346Z,20.30
2018-07-06T22:24:42.652Z,20.30
2018-07-06T22:27:11.960Z,20.30
2018-07-06T22:32:10.039Z,20.00
2018-07-06T22:34:39.358Z,20.00
2018-07-06T22:37:08.736Z,20.00
2018-07-06T22:39:38.071Z,19.90
2018-07-06T22:42:07.398Z,19.60
2018-07-06T22:44:36.671Z,19.60
2018-07-06T22:47:06.039Z,19.60
2018-07-06T22:49:35.319Z,19.40
2018-07-06T22:52:04.636Z,19.30
2018-07-06T22:54:34.812Z,19.20
2018-07-06T22:57:04.107Z,19.20
2018-07-06T22:59:33.394Z,19.10
2018-07-06T23:02:02.664Z,19.10
2018-07-06T23:04:31.937Z,19.00
2018-07-06T23:07:01.224Z,18.90
2018-07-06T23:09:30.543Z,18.80
2018-07-06T23:11:59.805Z,18.60
2018-07-06T23:14:29.154Z,18.60
2018-07-06T23:16:58.462Z,18.70
2018-07-06T23:19:27.787Z,18.70
2018-07-06T23:21:57.087Z,18.60
2018-07-06T23:24:26.389Z,18.50
2018-07-06T23:26:55.627Z,18.50
2018-07-06T23:29:24.980Z,18.40
2018-07-06T23:31:54.325Z,18.30
2018-07-06T23:34:23.583Z,18.00
2018-07-06T23:36:52.895Z,18.00
2018-07-06T23:39:22.208Z,18.00
2018-07-06T23:41:51.543Z,17.90
2018-07-06T23:44:20.770Z,17.90
2018-07-06T23:46:50.098Z,17.90
2018-07-06T23:49:19.305Z,17.80
2018-07-06T23:51:48.561Z,17.80
2018-07-06T23:54:17.871Z,17.80
2018-07-06T23:56:47.143Z,17.80
2018-07-06T23:59:16.407Z,17.70
